sensor_id;sensor_type;location;lat;lon;timestamp;P1;durP1;ratioP1;P2;durP2;ratioP2
4389;SDS011;2209;48.982;8.406;2024-03-23T00:51:21;6.37;;;5.00;;
4389;SDS011;2209;48.982;8.406;2024-03-23T00:53:42;5.60;;;5.10;;
4389;SDS011;2209;48.982;8.406;2024-03-23T00:56:04;7.03;;;5.87;;
4389;SDS011;2209;48.982;8.406;2024-03-23T00:58:26;6.60;;;5.00;;
4389;SDS011;2209;48.982;8.406;2024-03-23T01:00:48;7.03;;;4.97;;
4389;SDS011;2209;48.982;8.406;2024-03-23T01:03:09;4.80;;;4.30;;
4389;SDS011;2209;48.982;8.406;2024-03-23T01:05:33;6.27;;;4.97;;
4389;SDS011;2209;48.982;8.406;2024-03-23T01:07:56;4.67;;;4.10;;
4389;SDS011;2209;48.982;8.406;2024-03-23T01:10:18;8.27;;;5.17;;
4389;SDS011;2209;48.982;8.406;2024-03-23T01:12:39;9.37;;;5.30;;
4389;SDS011;2209;48.982;8.406;2024-03-23T01:15:02;4.77;;;4.37;;
4389;SDS011;2209;48.982;8.406;2024-03-23T01:17:27;6.20;;;4.27;;
4389;SDS011;2209;48.982;8.406;2024-03-23T01:19:51;4.30;;;3.90;;
4389;SDS011;2209;48.982;8.406;2024-03-23T01:22:14;4.80;;;3.57;;
4389;SDS011;2209;48.982;8.406;2024-03-23T01:24:41;4.40;;;3.83;;
4389;SDS011;2209;48.982;8.406;2024-03-23T01:27:04;7.83;;;3.87;;
4389;SDS011;2209;48.982;8.406;2024-03-23T01:29:27;5.90;;;3.93;;
4389;SDS011;2209;48.982;8.406;2024-03-23T01:31:50;3.70;;;3.07;;
4389;SDS011;2209;48.982;8.406;2024-03-23T01:34:12;5.17;;;4.03;;
4389;SDS011;2209;48.982;8.406;2024-03-23T01:36:35;9.63;;;3.87;;
4389;SDS011;2209;48.982;8.406;2024-03-23T01:38:59;7.23;;;3.90;;
4389;SDS011;2209;48.982;8.406;2024-03-23T01:41:20;5.73;;;3.80;;
4389;SDS011;2209;48.982;8.406;2024-03-23T01:43:42;4.87;;;4.23;;
4389;SDS011;2209;48.982;8.406;2024-03-23T01:46:04;6.27;;;5.27;;
4389;SDS011;2209;48.982;8.406;2024-03-23T01:48:26;5.40;;;4.90;;
4389;SDS011;2209;48.982;8.406;2024-03-23T01:50:47;5.13;;;4.10;;
4389;SDS011;2209;48.982;8.406;2024-03-23T01:53:09;5.53;;;4.67;;
4389;SDS011;2209;48.982;8.406;2024-03-23T01:55:32;6.20;;;5.17;;
4389;SDS011;2209;48.982;8.406;2024-03-23T01:57:57;4.43;;;4.03;;
4389;SDS011;2209;48.982;8.406;2024-03-23T02:00:18;4.27;;;3.80;;
4389;SDS011;2209;48.982;8.406;2024-03-23T02:02:42;3.90;;;3.60;;
4389;SDS011;2209;48.982;8.406;2024-03-23T02:05:09;5.10;;;3.97;;
4389;SDS011;2209;48.982;8.406;2024-03-23T02:07:31;5.60;;;4.57;;
4389;SDS011;2209;48.982;8.406;2024-03-23T02:09:53;4.27;;;3.97;;
4389;SDS011;2209;48.982;8.406;2024-03-23T02:12:19;4.80;;;4.27;;
4389;SDS011;2209;48.982;8.406;2024-03-23T02:14:41;5.40;;;4.90;;
4389;SDS011;2209;48.982;8.406;2024-03-23T02:17:05;4.60;;;4.30;;
4389;SDS011;2209;48.982;8.406;2024-03-23T02:19:26;3.60;;;3.27;;
4389;SDS011;2209;48.982;8.406;2024-03-23T02:21:48;4.10;;;3.80;;
4389;SDS011;2209;48.982;8.406;2024-03-23T02:24:11;4.10;;;3.53;;
4389;SDS011;2209;48.982;8.406;2024-03-23T02:26:33;4.23;;;3.83;;
4389;SDS011;2209;48.982;8.406;2024-03-23T02:28:54;6.53;;;4.20;;
4389;SDS011;2209;48.982;8.406;2024-03-23T02:31:16;5.00;;;3.37;;
4389;SDS011;2209;48.982;8.406;2024-03-23T02:33:37;5.10;;;4.53;;
4389;SDS011;2209;48.982;8.406;2024-03-23T02:35:59;4.90;;;4.40;;
4389;SDS011;2209;48.982;8.406;2024-03-23T02:38:21;4.63;;;4.23;;
4389;SDS011;2209;48.982;8.406;2024-03-23T02:40:44;11.33;;;4.13;;
4389;SDS011;2209;48.982;8.406;2024-03-23T02:43:05;4.17;;;3.87;;
4389;SDS011;2209;48.982;8.406;2024-03-23T02:45:28;3.80;;;3.50;;
4389;SDS011;2209;48.982;8.406;2024-03-23T02:47:49;3.80;;;3.50;;
4389;SDS011;2209;48.982;8.406;2024-03-23T02:50:12;4.13;;;3.80;;
4389;SDS011;2209;48.982;8.406;2024-03-23T02:52:35;3.90;;;3.60;;
4389;SDS011;2209;48.982;8.406;2024-03-23T02:54:57;5.30;;;4.30;;
4389;SDS011;2209;48.982;8.406;2024-03-23T02:57:20;4.73;;;3.67;;
4389;SDS011;2209;48.982;8.406;2024-03-23T02:59:42;4.93;;;4.50;;
4389;SDS011;2209;48.982;8.406;2024-03-23T03:02:04;6.13;;;4.50;;
4389;SDS011;2209;48.982;8.406;2024-03-23T03:04:27;4.00;;;3.70;;
4389;SDS011;2209;48.982;8.406;2024-03-23T03:06:48;10.10;;;4.30;;
4389;SDS011;2209;48.982;8.406;2024-03-23T03:09:11;4.00;;;3.70;;
4389;SDS011;2209;48.982;8.406;2024-03-23T03:11:32;5.77;;;4.70;;
4389;SDS011;2209;48.982;8.406;2024-03-23T03:13:55;7.83;;;4.90;;
4389;SDS011;2209;48.982;8.406;2024-03-23T03:16:17;6.40;;;4.90;;
4389;SDS011;2209;48.982;8.406;2024-03-23T03:18:39;5.47;;;5.07;;
4389;SDS011;2209;48.982;8.406;2024-03-23T03:21:01;5.90;;;5.30;;
4389;SDS011;2209;48.982;8.406;2024-03-23T03:23:23;7.47;;;5.30;;
4389;SDS011;2209;48.982;8.406;2024-03-23T03:25:44;10.30;;;5.57;;
4389;SDS011;2209;48.982;8.406;2024-03-23T03:28:06;7.50;;;6.47;;
4389;SDS011;2209;48.982;8.406;2024-03-23T03:30:28;6.10;;;5.30;;
4389;SDS011;2209;48.982;8.406;2024-03-23T03:32:51;7.57;;;5.93;;
4389;SDS011;2209;48.982;8.406;2024-03-23T03:35:14;7.20;;;5.87;;
4389;SDS011;2209;48.982;8.406;2024-03-23T03:37:36;10.77;;;6.67;;
4389;SDS011;2209;48.982;8.406;2024-03-23T03:39:57;8.30;;;7.50;;
4389;SDS011;2209;48.982;8.406;2024-03-23T03:42:19;9.57;;;6.90;;
4389;SDS011;2209;48.982;8.406;2024-03-23T03:44:40;9.80;;;8.80;;
4389;SDS011;2209;48.982;8.406;2024-03-23T03:47:04;9.57;;;8.67;;
4389;SDS011;2209;48.982;8.406;2024-03-23T03:49:25;12.53;;;10.07;;
4389;SDS011;2209;48.982;8.406;2024-03-23T03:51:48;9.63;;;8.57;;
4389;SDS011;2209;48.982;8.406;2024-03-23T03:54:09;11.40;;;9.43;;
4389;SDS011;2209;48.982;8.406;2024-03-23T03:56:31;10.17;;;9.03;;
4389;SDS011;2209;48.982;8.406;2024-03-23T03:58:53;12.60;;;9.10;;
4389;SDS011;2209;48.982;8.406;2024-03-23T04:01:15;10.93;;;8.90;;
4389;SDS011;2209;48.982;8.406;2024-03-23T04:03:37;10.63;;;9.30;;
4389;SDS011;2209;48.982;8.406;2024-03-23T04:06:04;10.03;;;8.90;;
4389;SDS011;2209;48.982;8.406;2024-03-23T04:08:25;9.90;;;8.80;;
4389;SDS011;2209;48.982;8.406;2024-03-23T04:10:47;10.73;;;8.77;;
4389;SDS011;2209;48.982;8.406;2024-03-23T04:13:08;11.07;;;9.97;;
4389;SDS011;2209;48.982;8.406;2024-03-23T04:15:30;10.57;;;9.47;;
4389;SDS011;2209;48.982;8.406;2024-03-23T04:17:51;13.07;;;9.60;;
4389;SDS011;2209;48.982;8.406;2024-03-23T04:20:15;17.23;;;10.60;;
4389;SDS011;2209;48.982;8.406;2024-03-23T04:22:37;11.73;;;10.40;;
4389;SDS011;2209;48.982;8.406;2024-03-23T04:24:59;11.77;;;10.07;;
4389;SDS011;2209;48.982;8.406;2024-03-23T04:27:20;10.60;;;9.50;;
4389;SDS011;2209;48.982;8.406;2024-03-23T04:29:46;13.40;;;9.60;;
4389;SDS011;2209;48.982;8.406;2024-03-23T04:32:08;11.47;;;9.33;;
4389;SDS011;2209;48.982;8.406;2024-03-23T04:34:30;12.20;;;9.57;;
4389;SDS011;2209;48.982;8.406;2024-03-23T04:36:54;12.80;;;10.63;;
4389;SDS011;2209;48.982;8.406;2024-03-23T04:39:16;12.43;;;10.10;;
4389;SDS011;2209;48.982;8.406;2024-03-23T04:41:40;10.93;;;9.63;;
4389;SDS011;2209;48.982;8.406;2024-03-23T04:44:02;10.13;;;9.13;;
4389;SDS011;2209;48.982;8.406;2024-03-23T04:46:24;11.43;;;10.20;;
4389;SDS011;2209;48.982;8.406;2024-03-23T04:48:46;10.70;;;9.60;;
4389;SDS011;2209;48.982;8.406;2024-03-23T04:51:08;9.90;;;8.40;;
4389;SDS011;2209;48.982;8.406;2024-03-23T04:53:34;9.17;;;8.23;;
4389;SDS011;2209;48.982;8.406;2024-03-23T04:55:56;7.83;;;7.03;;
4389;SDS011;2209;48.982;8.406;2024-03-23T04:58:19;9.90;;;8.00;;
4389;SDS011;2209;48.982;8.406;2024-03-23T05:00:40;9.40;;;8.07;;
4389;SDS011;2209;48.982;8.406;2024-03-23T05:03:02;9.30;;;8.10;;
4389;SDS011;2209;48.982;8.406;2024-03-23T05:05:25;10.23;;;7.70;;
4389;SDS011;2209;48.982;8.406;2024-03-23T05:07:46;8.87;;;7.90;;
4389;SDS011;2209;48.982;8.406;2024-03-23T05:10:10;7.90;;;7.10;;
4389;SDS011;2209;48.982;8.406;2024-03-23T05:12:31;7.83;;;6.97;;
4389;SDS011;2209;48.982;8.406;2024-03-23T05:14:53;7.40;;;6.07;;
4389;SDS011;2209;48.982;8.406;2024-03-23T05:17:14;6.97;;;6.30;;
4389;SDS011;2209;48.982;8.406;2024-03-23T05:19:36;5.23;;;4.80;;
4389;SDS011;2209;48.982;8.406;2024-03-23T05:21:58;3.50;;;3.20;;
4389;SDS011;2209;48.982;8.406;2024-03-23T05:24:20;3.60;;;3.30;;
4389;SDS011;2209;48.982;8.406;2024-03-23T05:26:43;3.10;;;2.90;;
4389;SDS011;2209;48.982;8.406;2024-03-23T05:29:05;2.70;;;2.50;;
4389;SDS011;2209;48.982;8.406;2024-03-23T05:31:31;3.13;;;2.57;;
4389;SDS011;2209;48.982;8.406;2024-03-23T05:33:53;2.17;;;1.53;;
4389;SDS011;2209;48.982;8.406;2024-03-23T05:36:15;1.20;;;1.10;;
4389;SDS011;2209;48.982;8.406;2024-03-23T05:38:37;1.50;;;1.40;;
4389;SDS011;2209;48.982;8.406;2024-03-23T05:40:58;1.53;;;1.43;;
4389;SDS011;2209;48.982;8.406;2024-03-23T05:43:23;1.40;;;1.00;;
4389;SDS011;2209;48.982;8.406;2024-03-23T05:45:44;2.10;;;1.47;;
4389;SDS011;2209;48.982;8.406;2024-03-23T05:48:06;1.00;;;1.00;;
4389;SDS011;2209;48.982;8.406;2024-03-23T05:50:28;0.97;;;0.97;;
4389;SDS011;2209;48.982;8.406;2024-03-23T05:52:50;1.10;;;1.00;;
4389;SDS011;2209;48.982;8.406;2024-03-23T05:55:11;1.10;;;1.00;;
4389;SDS011;2209;48.982;8.406;2024-03-23T05:57:33;1.07;;;0.80;;
4389;SDS011;2209;48.982;8.406;2024-03-23T05:59:56;0.93;;;0.93;;
4389;SDS011;2209;48.982;8.406;2024-03-23T06:02:18;1.00;;;0.90;;
4389;SDS011;2209;48.982;8.406;2024-03-23T06:04:39;0.80;;;0.80;;
4389;SDS011;2209;48.982;8.406;2024-03-23T06:07:02;0.87;;;0.87;;
4389;SDS011;2209;48.982;8.406;2024-03-23T06:09:23;0.80;;;0.80;;
4389;SDS011;2209;48.982;8.406;2024-03-23T06:11:46;1.03;;;0.93;;
4389;SDS011;2209;48.982;8.406;2024-03-23T06:14:07;0.97;;;0.93;;
4389;SDS011;2209;48.982;8.406;2024-03-23T06:16:30;1.67;;;0.90;;
4389;SDS011;2209;48.982;8.406;2024-03-23T06:18:51;0.80;;;0.80;;
4389;SDS011;2209;48.982;8.406;2024-03-23T06:21:15;0.80;;;0.80;;
4389;SDS011;2209;48.982;8.406;2024-03-23T06:23:36;0.93;;;0.90;;
4389;SDS011;2209;48.982;8.406;2024-03-23T06:25:58;0.83;;;0.83;;
4389;SDS011;2209;48.982;8.406;2024-03-23T06:28:19;1.00;;;0.93;;
4389;SDS011;2209;48.982;8.406;2024-03-23T06:30:42;0.80;;;0.80;;
4389;SDS011;2209;48.982;8.406;2024-03-23T06:33:04;0.90;;;0.90;;
4389;SDS011;2209;48.982;8.406;2024-03-23T06:35:26;0.83;;;0.83;;
4389;SDS011;2209;48.982;8.406;2024-03-23T06:37:47;1.10;;;1.00;;
4389;SDS011;2209;48.982;8.406;2024-03-23T06:40:10;0.80;;;0.80;;
4389;SDS011;2209;48.982;8.406;2024-03-23T06:42:31;1.00;;;0.90;;
4389;SDS011;2209;48.982;8.406;2024-03-23T06:44:53;0.70;;;0.70;;
4389;SDS011;2209;48.982;8.406;2024-03-23T06:47:14;0.70;;;0.70;;
4389;SDS011;2209;48.982;8.406;2024-03-23T06:49:38;1.27;;;0.80;;
4389;SDS011;2209;48.982;8.406;2024-03-23T06:51:59;0.70;;;0.70;;
4389;SDS011;2209;48.982;8.406;2024-03-23T06:54:21;0.70;;;0.70;;
4389;SDS011;2209;48.982;8.406;2024-03-23T06:56:43;0.80;;;0.70;;
4389;SDS011;2209;48.982;8.406;2024-03-23T06:59:07;1.77;;;0.87;;
4389;SDS011;2209;48.982;8.406;2024-03-23T07:01:28;0.70;;;0.60;;
4389;SDS011;2209;48.982;8.406;2024-03-23T07:03:50;0.80;;;0.80;;
4389;SDS011;2209;48.982;8.406;2024-03-23T07:06:13;0.70;;;0.70;;
4389;SDS011;2209;48.982;8.406;2024-03-23T07:08:35;1.07;;;0.93;;
4389;SDS011;2209;48.982;8.406;2024-03-23T07:10:56;0.80;;;0.80;;
4389;SDS011;2209;48.982;8.406;2024-03-23T07:13:18;0.80;;;0.70;;
4389;SDS011;2209;48.982;8.406;2024-03-23T07:15:39;0.67;;;0.67;;
4389;SDS011;2209;48.982;8.406;2024-03-23T07:18:02;1.20;;;0.60;;
4389;SDS011;2209;48.982;8.406;2024-03-23T07:20:23;1.70;;;0.73;;
4389;SDS011;2209;48.982;8.406;2024-03-23T07:22:46;0.60;;;0.60;;
4389;SDS011;2209;48.982;8.406;2024-03-23T07:25:08;1.00;;;0.63;;
4389;SDS011;2209;48.982;8.406;2024-03-23T07:27:30;0.70;;;0.70;;
4389;SDS011;2209;48.982;8.406;2024-03-23T07:29:51;0.93;;;0.93;;
4389;SDS011;2209;48.982;8.406;2024-03-23T07:32:13;0.80;;;0.60;;
4389;SDS011;2209;48.982;8.406;2024-03-23T07:34:34;0.70;;;0.70;;
4389;SDS011;2209;48.982;8.406;2024-03-23T07:36:56;0.93;;;0.70;;
4389;SDS011;2209;48.982;8.406;2024-03-23T07:39:18;0.80;;;0.80;;
4389;SDS011;2209;48.982;8.406;2024-03-23T07:41:40;0.70;;;0.70;;
4389;SDS011;2209;48.982;8.406;2024-03-23T07:44:05;0.60;;;0.60;;
4389;SDS011;2209;48.982;8.406;2024-03-23T07:46:27;0.70;;;0.70;;
4389;SDS011;2209;48.982;8.406;2024-03-23T07:48:48;1.90;;;0.87;;
4389;SDS011;2209;48.982;8.406;2024-03-23T07:51:10;0.90;;;0.70;;
4389;SDS011;2209;48.982;8.406;2024-03-23T07:53:37;0.80;;;0.80;;
4389;SDS011;2209;48.982;8.406;2024-03-23T07:56:01;0.83;;;0.83;;
4389;SDS011;2209;48.982;8.406;2024-03-23T07:58:23;1.00;;;0.90;;
4389;SDS011;2209;48.982;8.406;2024-03-23T08:00:45;0.83;;;0.67;;
4389;SDS011;2209;48.982;8.406;2024-03-23T08:03:07;2.10;;;0.90;;
4389;SDS011;2209;48.982;8.406;2024-03-23T08:05:29;1.07;;;0.87;;
4389;SDS011;2209;48.982;8.406;2024-03-23T08:07:50;0.80;;;0.80;;
4389;SDS011;2209;48.982;8.406;2024-03-23T08:10:12;1.10;;;1.00;;
4389;SDS011;2209;48.982;8.406;2024-03-23T08:12:34;1.20;;;1.10;;
4389;SDS011;2209;48.982;8.406;2024-03-23T08:14:56;3.13;;;1.53;;
4389;SDS011;2209;48.982;8.406;2024-03-23T08:17:18;1.47;;;1.17;;
4389;SDS011;2209;48.982;8.406;2024-03-23T08:19:40;1.50;;;1.30;;
4389;SDS011;2209;48.982;8.406;2024-03-23T08:22:01;1.50;;;1.40;;
4389;SDS011;2209;48.982;8.406;2024-03-23T08:24:23;3.47;;;1.83;;
4389;SDS011;2209;48.982;8.406;2024-03-23T08:26:44;1.50;;;1.40;;
4389;SDS011;2209;48.982;8.406;2024-03-23T08:29:08;4.40;;;2.00;;
4389;SDS011;2209;48.982;8.406;2024-03-23T08:31:29;2.83;;;2.53;;
4389;SDS011;2209;48.982;8.406;2024-03-23T08:33:51;4.07;;;2.27;;
4389;SDS011;2209;48.982;8.406;2024-03-23T08:36:12;6.73;;;3.13;;
4389;SDS011;2209;48.982;8.406;2024-03-23T08:38:34;4.73;;;2.90;;
4389;SDS011;2209;48.982;8.406;2024-03-23T08:40:56;4.20;;;2.40;;
4389;SDS011;2209;48.982;8.406;2024-03-23T08:43:18;7.43;;;3.40;;
4389;SDS011;2209;48.982;8.406;2024-03-23T08:45:41;5.17;;;3.17;;
4389;SDS011;2209;48.982;8.406;2024-03-23T08:48:03;3.70;;;3.10;;
4389;SDS011;2209;48.982;8.406;2024-03-23T08:50:25;6.47;;;3.27;;
4389;SDS011;2209;48.982;8.406;2024-03-23T08:52:47;5.43;;;2.70;;
4389;SDS011;2209;48.982;8.406;2024-03-23T08:55:08;5.03;;;2.60;;
4389;SDS011;2209;48.982;8.406;2024-03-23T08:57:32;5.60;;;2.67;;
4389;SDS011;2209;48.982;8.406;2024-03-23T08:59:54;4.03;;;2.57;;
4389;SDS011;2209;48.982;8.406;2024-03-23T09:02:17;5.10;;;2.20;;
4389;SDS011;2209;48.982;8.406;2024-03-23T09:04:39;4.03;;;2.77;;
4389;SDS011;2209;48.982;8.406;2024-03-23T09:07:01;3.43;;;2.10;;
4389;SDS011;2209;48.982;8.406;2024-03-23T09:09:22;5.57;;;3.10;;
4389;SDS011;2209;48.982;8.406;2024-03-23T09:11:44;5.67;;;3.13;;
4389;SDS011;2209;48.982;8.406;2024-03-23T09:14:05;6.83;;;2.83;;
4389;SDS011;2209;48.982;8.406;2024-03-23T09:16:27;5.83;;;2.90;;
4389;SDS011;2209;48.982;8.406;2024-03-23T09:18:49;5.93;;;3.27;;
4389;SDS011;2209;48.982;8.406;2024-03-23T09:21:13;5.60;;;2.80;;
4389;SDS011;2209;48.982;8.406;2024-03-23T09:23:35;7.00;;;3.27;;
4389;SDS011;2209;48.982;8.406;2024-03-23T09:25:57;5.57;;;3.30;;
4389;SDS011;2209;48.982;8.406;2024-03-23T09:28:18;3.77;;;2.70;;
4389;SDS011;2209;48.982;8.406;2024-03-23T09:30:40;5.73;;;3.17;;
4389;SDS011;2209;48.982;8.406;2024-03-23T09:33:02;2.73;;;2.20;;
4389;SDS011;2209;48.982;8.406;2024-03-23T09:35:26;6.10;;;3.13;;
4389;SDS011;2209;48.982;8.406;2024-03-23T09:37:47;4.17;;;2.90;;
4389;SDS011;2209;48.982;8.406;2024-03-23T09:40:09;4.47;;;2.97;;
4389;SDS011;2209;48.982;8.406;2024-03-23T09:42:31;4.10;;;3.20;;
4389;SDS011;2209;48.982;8.406;2024-03-23T09:44:54;3.50;;;2.77;;
4389;SDS011;2209;48.982;8.406;2024-03-23T09:47:18;7.80;;;2.50;;
4389;SDS011;2209;48.982;8.406;2024-03-23T09:49:40;7.30;;;3.63;;
4389;SDS011;2209;48.982;8.406;2024-03-23T09:52:02;3.80;;;2.73;;
4389;SDS011;2209;48.982;8.406;2024-03-23T09:54:25;6.83;;;3.43;;
4389;SDS011;2209;48.982;8.406;2024-03-23T09:56:46;5.03;;;3.20;;
4389;SDS011;2209;48.982;8.406;2024-03-23T09:59:08;5.20;;;3.00;;
4389;SDS011;2209;48.982;8.406;2024-03-23T10:01:30;2.93;;;2.60;;
4389;SDS011;2209;48.982;8.406;2024-03-23T10:03:52;4.13;;;2.93;;
4389;SDS011;2209;48.982;8.406;2024-03-23T10:06:13;5.30;;;3.50;;
4389;SDS011;2209;48.982;8.406;2024-03-23T10:08:36;10.23;;;3.67;;
4389;SDS011;2209;48.982;8.406;2024-03-23T10:10:57;6.30;;;4.03;;
4389;SDS011;2209;48.982;8.406;2024-03-23T10:13:33;4.93;;;3.60;;
4389;SDS011;2209;48.982;8.406;2024-03-23T10:15:55;7.57;;;4.13;;
4389;SDS011;2209;48.982;8.406;2024-03-23T10:18:19;6.17;;;3.80;;
4389;SDS011;2209;48.982;8.406;2024-03-23T10:20:41;6.77;;;4.03;;
4389;SDS011;2209;48.982;8.406;2024-03-23T10:23:04;5.33;;;4.07;;
4389;SDS011;2209;48.982;8.406;2024-03-23T10:25:37;7.63;;;3.87;;
4389;SDS011;2209;48.982;8.406;2024-03-23T10:27:59;8.70;;;4.23;;
4389;SDS011;2209;48.982;8.406;2024-03-23T10:30:21;7.97;;;4.70;;
4389;SDS011;2209;48.982;8.406;2024-03-23T10:32:47;7.10;;;3.43;;
4389;SDS011;2209;48.982;8.406;2024-03-23T10:35:14;5.40;;;4.10;;
4389;SDS011;2209;48.982;8.406;2024-03-23T10:37:37;6.90;;;3.53;;
4389;SDS011;2209;48.982;8.406;2024-03-23T10:39:58;8.53;;;4.03;;
4389;SDS011;2209;48.982;8.406;2024-03-23T10:42:21;6.10;;;4.13;;
4389;SDS011;2209;48.982;8.406;2024-03-23T10:44:43;4.10;;;3.30;;
4389;SDS011;2209;48.982;8.406;2024-03-23T10:47:05;5.20;;;2.90;;
4389;SDS011;2209;48.982;8.406;2024-03-23T10:49:26;9.90;;;4.10;;
4389;SDS011;2209;48.982;8.406;2024-03-23T10:51:50;4.93;;;2.83;;
4389;SDS011;2209;48.982;8.406;2024-03-23T10:54:11;4.60;;;3.10;;
4389;SDS011;2209;48.982;8.406;2024-03-23T10:56:34;5.57;;;3.00;;
4389;SDS011;2209;48.982;8.406;2024-03-23T10:58:58;5.57;;;2.73;;
4389;SDS011;2209;48.982;8.406;2024-03-23T11:01:23;4.40;;;3.30;;
4389;SDS011;2209;48.982;8.406;2024-03-23T11:03:44;3.30;;;2.90;;
4389;SDS011;2209;48.982;8.406;2024-03-23T11:06:07;3.70;;;2.93;;
4389;SDS011;2209;48.982;8.406;2024-03-23T11:08:32;6.23;;;3.17;;
4389;SDS011;2209;48.982;8.406;2024-03-23T11:11:01;4.00;;;3.00;;
4389;SDS011;2209;48.982;8.406;2024-03-23T11:13:32;4.63;;;3.23;;
4389;SDS011;2209;48.982;8.406;2024-03-23T11:15:56;4.97;;;2.80;;
4389;SDS011;2209;48.982;8.406;2024-03-23T11:18:33;3.67;;;2.70;;
4389;SDS011;2209;48.982;8.406;2024-03-23T11:20:55;6.10;;;3.33;;
4389;SDS011;2209;48.982;8.406;2024-03-23T11:23:26;4.70;;;2.90;;
4389;SDS011;2209;48.982;8.406;2024-03-23T11:25:49;7.93;;;3.57;;
4389;SDS011;2209;48.982;8.406;2024-03-23T11:28:11;3.50;;;2.13;;
4389;SDS011;2209;48.982;8.406;2024-03-23T11:30:33;3.23;;;2.67;;
4389;SDS011;2209;48.982;8.406;2024-03-23T11:32:57;4.77;;;2.70;;
4389;SDS011;2209;48.982;8.406;2024-03-23T11:35:27;3.40;;;2.70;;
4389;SDS011;2209;48.982;8.406;2024-03-23T11:38:00;7.93;;;3.50;;
4389;SDS011;2209;48.982;8.406;2024-03-23T11:40:29;3.33;;;3.03;;
4389;SDS011;2209;48.982;8.406;2024-03-23T11:42:54;5.90;;;3.70;;
4389;SDS011;2209;48.982;8.406;2024-03-23T11:45:18;3.20;;;2.90;;
4389;SDS011;2209;48.982;8.406;2024-03-23T11:47:39;3.73;;;3.23;;
4389;SDS011;2209;48.982;8.406;2024-03-23T11:50:02;4.27;;;2.70;;
4389;SDS011;2209;48.982;8.406;2024-03-23T11:52:24;5.20;;;2.70;;
4389;SDS011;2209;48.982;8.406;2024-03-23T11:54:46;6.40;;;3.13;;
4389;SDS011;2209;48.982;8.406;2024-03-23T11:57:07;3.10;;;2.40;;
4389;SDS011;2209;48.982;8.406;2024-03-23T11:59:31;8.93;;;2.77;;
4389;SDS011;2209;48.982;8.406;2024-03-23T12:01:54;3.30;;;2.40;;
4389;SDS011;2209;48.982;8.406;2024-03-23T12:04:24;5.57;;;2.70;;
4389;SDS011;2209;48.982;8.406;2024-03-23T12:06:47;6.10;;;2.60;;
4389;SDS011;2209;48.982;8.406;2024-03-23T12:09:09;4.90;;;2.70;;
4389;SDS011;2209;48.982;8.406;2024-03-23T12:11:30;5.40;;;2.40;;
4389;SDS011;2209;48.982;8.406;2024-03-23T12:13:52;3.73;;;2.70;;
4389;SDS011;2209;48.982;8.406;2024-03-23T12:16:20;6.63;;;3.27;;
4389;SDS011;2209;48.982;8.406;2024-03-23T12:18:42;5.93;;;2.40;;
4389;SDS011;2209;48.982;8.406;2024-03-23T12:21:05;6.67;;;2.60;;
4389;SDS011;2209;48.982;8.406;2024-03-23T12:23:28;4.40;;;2.80;;
4389;SDS011;2209;48.982;8.406;2024-03-23T12:25:50;9.40;;;3.10;;
4389;SDS011;2209;48.982;8.406;2024-03-23T12:28:12;6.40;;;2.90;;
4389;SDS011;2209;48.982;8.406;2024-03-23T12:30:33;6.30;;;2.87;;
4389;SDS011;2209;48.982;8.406;2024-03-23T12:32:56;6.13;;;3.57;;
4389;SDS011;2209;48.982;8.406;2024-03-23T12:35:17;5.53;;;2.80;;
4389;SDS011;2209;48.982;8.406;2024-03-23T12:37:39;7.57;;;3.10;;
4389;SDS011;2209;48.982;8.406;2024-03-23T12:40:02;7.00;;;3.23;;
4389;SDS011;2209;48.982;8.406;2024-03-23T12:42:25;7.83;;;3.50;;
4389;SDS011;2209;48.982;8.406;2024-03-23T12:44:46;7.23;;;3.43;;
4389;SDS011;2209;48.982;8.406;2024-03-23T12:47:08;5.90;;;3.23;;
4389;SDS011;2209;48.982;8.406;2024-03-23T12:49:31;7.00;;;3.93;;
4389;SDS011;2209;48.982;8.406;2024-03-23T12:51:53;5.33;;;3.13;;
4389;SDS011;2209;48.982;8.406;2024-03-23T12:54:16;6.10;;;2.93;;
4389;SDS011;2209;48.982;8.406;2024-03-23T12:56:39;3.80;;;2.00;;
4389;SDS011;2209;48.982;8.406;2024-03-23T12:59:00;2.60;;;1.67;;
4389;SDS011;2209;48.982;8.406;2024-03-23T13:01:23;2.60;;;1.23;;
4389;SDS011;2209;48.982;8.406;2024-03-23T13:03:46;2.97;;;1.27;;
4389;SDS011;2209;48.982;8.406;2024-03-23T13:06:08;2.30;;;1.00;;
4389;SDS011;2209;48.982;8.406;2024-03-23T13:08:29;2.77;;;1.37;;
4389;SDS011;2209;48.982;8.406;2024-03-23T13:10:51;5.20;;;1.00;;
4389;SDS011;2209;48.982;8.406;2024-03-23T13:13:13;3.17;;;1.50;;
4389;SDS011;2209;48.982;8.406;2024-03-23T13:15:35;1.77;;;0.80;;
4389;SDS011;2209;48.982;8.406;2024-03-23T13:17:57;5.40;;;1.60;;
4389;SDS011;2209;48.982;8.406;2024-03-23T13:20:19;1.00;;;0.90;;
4389;SDS011;2209;48.982;8.406;2024-03-23T13:22:40;3.20;;;1.20;;
4389;SDS011;2209;48.982;8.406;2024-03-23T13:25:02;2.70;;;1.10;;
4389;SDS011;2209;48.982;8.406;2024-03-23T13:27:24;2.60;;;1.10;;
4389;SDS011;2209;48.982;8.406;2024-03-23T13:29:47;2.73;;;1.23;;
4389;SDS011;2209;48.982;8.406;2024-03-23T13:32:08;2.50;;;1.00;;
4389;SDS011;2209;48.982;8.406;2024-03-23T13:34:30;1.40;;;1.27;;
4389;SDS011;2209;48.982;8.406;2024-03-23T13:36:52;4.53;;;1.30;;
4389;SDS011;2209;48.982;8.406;2024-03-23T13:39:14;3.67;;;1.37;;
4389;SDS011;2209;48.982;8.406;2024-03-23T13:41:36;1.40;;;1.30;;
4389;SDS011;2209;48.982;8.406;2024-03-23T13:43:59;2.30;;;1.10;;
4389;SDS011;2209;48.982;8.406;2024-03-23T13:46:21;2.10;;;1.30;;
4389;SDS011;2209;48.982;8.406;2024-03-23T13:48:43;1.87;;;1.40;;
4389;SDS011;2209;48.982;8.406;2024-03-23T13:51:04;2.60;;;1.20;;
4389;SDS011;2209;48.982;8.406;2024-03-23T13:53:27;1.67;;;1.30;;
4389;SDS011;2209;48.982;8.406;2024-03-23T13:55:48;4.70;;;1.17;;
4389;SDS011;2209;48.982;8.406;2024-03-23T13:58:10;1.53;;;0.90;;
4389;SDS011;2209;48.982;8.406;2024-03-23T14:00:32;2.80;;;1.43;;
4389;SDS011;2209;48.982;8.406;2024-03-23T14:02:56;1.90;;;1.60;;
4389;SDS011;2209;48.982;8.406;2024-03-23T14:05:17;5.03;;;1.40;;
4389;SDS011;2209;48.982;8.406;2024-03-23T14:07:39;4.10;;;1.73;;
4389;SDS011;2209;48.982;8.406;2024-03-23T14:10:02;1.00;;;0.90;;
4389;SDS011;2209;48.982;8.406;2024-03-23T14:12:25;2.17;;;1.20;;
4389;SDS011;2209;48.982;8.406;2024-03-23T14:14:46;2.27;;;1.03;;
4389;SDS011;2209;48.982;8.406;2024-03-23T14:17:08;1.57;;;1.00;;
4389;SDS011;2209;48.982;8.406;2024-03-23T14:19:30;1.57;;;0.97;;
4389;SDS011;2209;48.982;8.406;2024-03-23T14:21:53;3.87;;;1.27;;
4389;SDS011;2209;48.982;8.406;2024-03-23T14:24:14;1.27;;;1.03;;
4389;SDS011;2209;48.982;8.406;2024-03-23T14:26:36;1.37;;;1.00;;
4389;SDS011;2209;48.982;8.406;2024-03-23T14:28:59;1.67;;;1.00;;
4389;SDS011;2209;48.982;8.406;2024-03-23T14:31:21;1.43;;;1.30;;
4389;SDS011;2209;48.982;8.406;2024-03-23T14:33:42;2.30;;;0.73;;
4389;SDS011;2209;48.982;8.406;2024-03-23T14:36:08;1.27;;;0.90;;
4389;SDS011;2209;48.982;8.406;2024-03-23T14:38:29;0.80;;;0.80;;
4389;SDS011;2209;48.982;8.406;2024-03-23T14:40:52;1.63;;;0.80;;
4389;SDS011;2209;48.982;8.406;2024-03-23T14:43:13;1.30;;;0.87;;
4389;SDS011;2209;48.982;8.406;2024-03-23T14:45:36;1.33;;;0.90;;
4389;SDS011;2209;48.982;8.406;2024-03-23T14:47:57;1.13;;;0.90;;
4389;SDS011;2209;48.982;8.406;2024-03-23T14:50:19;1.50;;;1.00;;
4389;SDS011;2209;48.982;8.406;2024-03-23T14:52:45;1.27;;;1.03;;
4389;SDS011;2209;48.982;8.406;2024-03-23T14:55:07;1.23;;;0.70;;
4389;SDS011;2209;48.982;8.406;2024-03-23T14:57:29;7.53;;;1.57;;
4389;SDS011;2209;48.982;8.406;2024-03-23T14:59:51;2.43;;;1.17;;
4389;SDS011;2209;48.982;8.406;2024-03-23T15:02:12;3.50;;;1.47;;
4389;SDS011;2209;48.982;8.406;2024-03-23T15:04:35;2.40;;;1.33;;
4389;SDS011;2209;48.982;8.406;2024-03-23T15:06:56;2.67;;;0.93;;
4389;SDS011;2209;48.982;8.406;2024-03-23T15:09:20;1.63;;;1.20;;
4389;SDS011;2209;48.982;8.406;2024-03-23T15:11:41;1.37;;;1.13;;
4389;SDS011;2209;48.982;8.406;2024-03-23T15:14:03;1.20;;;1.10;;
4389;SDS011;2209;48.982;8.406;2024-03-23T15:16:24;2.00;;;1.37;;
4389;SDS011;2209;48.982;8.406;2024-03-23T15:18:46;1.10;;;0.90;;
4389;SDS011;2209;48.982;8.406;2024-03-23T15:21:07;2.30;;;1.57;;
4389;SDS011;2209;48.982;8.406;2024-03-23T15:23:31;1.33;;;1.17;;
4389;SDS011;2209;48.982;8.406;2024-03-23T15:25:57;2.20;;;1.03;;
4389;SDS011;2209;48.982;8.406;2024-03-23T15:28:19;2.20;;;1.30;;
4389;SDS011;2209;48.982;8.406;2024-03-23T15:30:40;2.53;;;1.30;;
4389;SDS011;2209;48.982;8.406;2024-03-23T15:33:03;5.27;;;1.17;;
4389;SDS011;2209;48.982;8.406;2024-03-23T15:35:24;4.60;;;1.30;;